sensor_id;sensor_type;location;lat;lon;timestamp;P1;durP1;ratioP1;P2;durP2;ratioP2
30743;SDS011;17486;46.738;7.622;2022-12-07T00:03:32;20.48;;;14.30;;
30743;SDS011;17486;46.738;7.622;2022-12-07T00:05:58;19.35;;;14.55;;
30743;SDS011;17486;46.738;7.622;2022-12-07T00:08:24;21.45;;;15.30;;
30743;SDS011;17486;46.738;7.622;2022-12-07T00:10:49;22.63;;;14.50;;
30743;SDS011;17486;46.738;7.622;2022-12-07T00:13:15;19.40;;;14.23;;
30743;SDS011;17486;46.738;7.622;2022-12-07T00:15:40;22.45;;;15.40;;
30743;SDS011;17486;46.738;7.622;2022-12-07T00:18:06;19.48;;;13.88;;
30743;SDS011;17486;46.738;7.622;2022-12-07T00:20:31;21.88;;;15.35;;
30743;SDS011;17486;46.738;7.622;2022-12-07T00:22:58;23.88;;;15.68;;
30743;SDS011;17486;46.738;7.622;2022-12-07T00:25:23;21.90;;;15.68;;
30743;SDS011;17486;46.738;7.622;2022-12-07T00:27:49;22.73;;;15.30;;
30743;SDS011;17486;46.738;7.622;2022-12-07T00:30:14;22.13;;;16.02;;
30743;SDS011;17486;46.738;7.622;2022-12-07T00:32:40;21.48;;;14.80;;
30743;SDS011;17486;46.738;7.622;2022-12-07T00:35:05;22.33;;;14.93;;
30743;SDS011;17486;46.738;7.622;2022-12-07T00:37:31;22.45;;;14.90;;
30743;SDS011;17486;46.738;7.622;2022-12-07T00:39:56;22.67;;;15.20;;
30743;SDS011;17486;46.738;7.622;2022-12-07T00:42:22;21.58;;;15.30;;
30743;SDS011;17486;46.738;7.622;2022-12-07T00:44:47;23.83;;;15.82;;
30743;SDS011;17486;46.738;7.622;2022-12-07T00:47:12;22.73;;;14.73;;
30743;SDS011;17486;46.738;7.622;2022-12-07T00:49:38;22.48;;;15.27;;
30743;SDS011;17486;46.738;7.622;2022-12-07T00:52:03;22.80;;;14.98;;
30743;SDS011;17486;46.738;7.622;2022-12-07T00:54:28;23.27;;;15.73;;
30743;SDS011;17486;46.738;7.622;2022-12-07T00:56:54;19.95;;;14.88;;
30743;SDS011;17486;46.738;7.622;2022-12-07T00:59:19;20.95;;;15.48;;
30743;SDS011;17486;46.738;7.622;2022-12-07T01:01:45;21.90;;;15.60;;
30743;SDS011;17486;46.738;7.622;2022-12-07T01:04:10;19.70;;;14.30;;
30743;SDS011;17486;46.738;7.622;2022-12-07T01:06:35;19.33;;;13.77;;
30743;SDS011;17486;46.738;7.622;2022-12-07T01:09:01;23.15;;;15.38;;
30743;SDS011;17486;46.738;7.622;2022-12-07T01:11:28;23.08;;;15.77;;
30743;SDS011;17486;46.738;7.622;2022-12-07T01:13:55;23.83;;;15.85;;
30743;SDS011;17486;46.738;7.622;2022-12-07T01:16:23;22.00;;;14.25;;
30743;SDS011;17486;46.738;7.622;2022-12-07T01:18:51;21.20;;;14.88;;
30743;SDS011;17486;46.738;7.622;2022-12-07T01:21:19;19.98;;;14.13;;
30743;SDS011;17486;46.738;7.622;2022-12-07T01:24:03;21.20;;;15.30;;
30743;SDS011;17486;46.738;7.622;2022-12-07T01:26:30;23.40;;;15.30;;
30743;SDS011;17486;46.738;7.622;2022-12-07T01:28:56;24.08;;;16.23;;
30743;SDS011;17486;46.738;7.622;2022-12-07T01:31:24;27.73;;;16.42;;
30743;SDS011;17486;46.738;7.622;2022-12-07T01:33:52;24.60;;;16.05;;
30743;SDS011;17486;46.738;7.622;2022-12-07T01:36:21;25.58;;;17.80;;
30743;SDS011;17486;46.738;7.622;2022-12-07T01:38:55;27.50;;;17.15;;
30743;SDS011;17486;46.738;7.622;2022-12-07T01:41:22;26.65;;;17.58;;
30743;SDS011;17486;46.738;7.622;2022-12-07T01:46:36;24.67;;;17.00;;
30743;SDS011;17486;46.738;7.622;2022-12-07T01:49:02;23.88;;;16.67;;
30743;SDS011;17486;46.738;7.622;2022-12-07T01:51:31;27.17;;;16.70;;
30743;SDS011;17486;46.738;7.622;2022-12-07T01:53:56;25.85;;;16.80;;
30743;SDS011;17486;46.738;7.622;2022-12-07T01:56:24;25.40;;;16.55;;
30743;SDS011;17486;46.738;7.622;2022-12-07T01:58:51;26.00;;;16.48;;
30743;SDS011;17486;46.738;7.622;2022-12-07T02:01:19;22.15;;;16.20;;
30743;SDS011;17486;46.738;7.622;2022-12-07T02:03:44;24.23;;;15.90;;
30743;SDS011;17486;46.738;7.622;2022-12-07T02:06:11;24.90;;;16.90;;
30743;SDS011;17486;46.738;7.622;2022-12-07T02:08:41;25.73;;;16.95;;
30743;SDS011;17486;46.738;7.622;2022-12-07T02:11:07;27.58;;;18.27;;
30743;SDS011;17486;46.738;7.622;2022-12-07T02:13:34;26.30;;;18.05;;
30743;SDS011;17486;46.738;7.622;2022-12-07T02:20:14;24.88;;;17.30;;
30743;SDS011;17486;46.738;7.622;2022-12-07T02:30:51;23.13;;;17.08;;
30743;SDS011;17486;46.738;7.622;2022-12-07T02:33:28;23.40;;;16.08;;
30743;SDS011;17486;46.738;7.622;2022-12-07T02:36:03;16.17;;;12.07;;
30743;SDS011;17486;46.738;7.622;2022-12-07T02:38:40;23.08;;;15.77;;
30743;SDS011;17486;46.738;7.622;2022-12-07T02:41:22;20.17;;;14.52;;
30743;SDS011;17486;46.738;7.622;2022-12-07T02:43:57;20.58;;;14.82;;
30743;SDS011;17486;46.738;7.622;2022-12-07T02:46:27;21.48;;;15.20;;
30743;SDS011;17486;46.738;7.622;2022-12-07T02:48:56;22.42;;;16.00;;
30743;SDS011;17486;46.738;7.622;2022-12-07T02:51:25;19.92;;;15.20;;
30743;SDS011;17486;46.738;7.622;2022-12-07T02:53:51;20.45;;;15.20;;
30743;SDS011;17486;46.738;7.622;2022-12-07T03:07:26;23.17;;;15.18;;
30743;SDS011;17486;46.738;7.622;2022-12-07T03:15:16;23.35;;;16.42;;
30743;SDS011;17486;46.738;7.622;2022-12-07T03:17:48;24.20;;;17.05;;
30743;SDS011;17486;46.738;7.622;2022-12-07T03:20:16;21.48;;;15.10;;
30743;SDS011;17486;46.738;7.622;2022-12-07T03:22:45;21.75;;;15.32;;
30743;SDS011;17486;46.738;7.622;2022-12-07T03:25:13;24.63;;;15.95;;
30743;SDS011;17486;46.738;7.622;2022-12-07T03:27:54;22.10;;;15.23;;
30743;SDS011;17486;46.738;7.622;2022-12-07T03:30:24;21.92;;;15.48;;
30743;SDS011;17486;46.738;7.622;2022-12-07T03:35:31;22.45;;;16.50;;
30743;SDS011;17486;46.738;7.622;2022-12-07T03:38:07;22.08;;;15.65;;
30743;SDS011;17486;46.738;7.622;2022-12-07T03:40:40;21.20;;;14.88;;
30743;SDS011;17486;46.738;7.622;2022-12-07T03:48:41;20.08;;;14.60;;
30743;SDS011;17486;46.738;7.622;2022-12-07T03:57:00;19.83;;;14.10;;
30743;SDS011;17486;46.738;7.622;2022-12-07T03:59:27;20.20;;;14.40;;
30743;SDS011;17486;46.738;7.622;2022-12-07T04:01:55;20.95;;;15.48;;
30743;SDS011;17486;46.738;7.622;2022-12-07T04:04:22;21.70;;;15.32;;
30743;SDS011;17486;46.738;7.622;2022-12-07T04:06:49;19.90;;;14.57;;
30743;SDS011;17486;46.738;7.622;2022-12-07T04:09:15;22.98;;;16.30;;
30743;SDS011;17486;46.738;7.622;2022-12-07T04:11:41;20.10;;;14.23;;
30743;SDS011;17486;46.738;7.622;2022-12-07T04:14:07;18.05;;;14.13;;
30743;SDS011;17486;46.738;7.622;2022-12-07T04:16:45;20.85;;;13.30;;
30743;SDS011;17486;46.738;7.622;2022-12-07T04:19:10;17.83;;;12.32;;
30743;SDS011;17486;46.738;7.622;2022-12-07T04:21:36;17.33;;;12.60;;
30743;SDS011;17486;46.738;7.622;2022-12-07T04:24:02;15.07;;;11.27;;
30743;SDS011;17486;46.738;7.622;2022-12-07T04:26:27;17.50;;;11.80;;
30743;SDS011;17486;46.738;7.622;2022-12-07T04:28:53;17.25;;;12.02;;
30743;SDS011;17486;46.738;7.622;2022-12-07T04:31:18;16.55;;;12.23;;
30743;SDS011;17486;46.738;7.622;2022-12-07T04:33:43;18.42;;;13.05;;
30743;SDS011;17486;46.738;7.622;2022-12-07T04:36:09;21.27;;;14.70;;
30743;SDS011;17486;46.738;7.622;2022-12-07T04:38:34;23.55;;;16.75;;
30743;SDS011;17486;46.738;7.622;2022-12-07T04:41:04;24.55;;;17.90;;
30743;SDS011;17486;46.738;7.622;2022-12-07T04:43:33;23.73;;;16.95;;
30743;SDS011;17486;46.738;7.622;2022-12-07T04:45:59;27.15;;;18.20;;
30743;SDS011;17486;46.738;7.622;2022-12-07T04:48:25;27.45;;;17.75;;
30743;SDS011;17486;46.738;7.622;2022-12-07T04:50:50;25.60;;;17.65;;
30743;SDS011;17486;46.738;7.622;2022-12-07T04:53:16;25.55;;;18.13;;
30743;SDS011;17486;46.738;7.622;2022-12-07T04:55:41;27.58;;;19.30;;
30743;SDS011;17486;46.738;7.622;2022-12-07T04:58:07;27.13;;;18.42;;
30743;SDS011;17486;46.738;7.622;2022-12-07T05:00:32;29.13;;;18.65;;
30743;SDS011;17486;46.738;7.622;2022-12-07T05:02:57;29.25;;;18.77;;
30743;SDS011;17486;46.738;7.622;2022-12-07T05:05:23;29.23;;;18.60;;
30743;SDS011;17486;46.738;7.622;2022-12-07T05:07:49;26.92;;;19.23;;
30743;SDS011;17486;46.738;7.622;2022-12-07T05:10:15;26.13;;;19.15;;
30743;SDS011;17486;46.738;7.622;2022-12-07T05:12:40;26.73;;;18.35;;
30743;SDS011;17486;46.738;7.622;2022-12-07T05:15:06;28.35;;;18.58;;
30743;SDS011;17486;46.738;7.622;2022-12-07T05:17:31;25.58;;;18.58;;
30743;SDS011;17486;46.738;7.622;2022-12-07T05:19:56;24.02;;;17.67;;
30743;SDS011;17486;46.738;7.622;2022-12-07T05:22:22;25.88;;;18.65;;
30743;SDS011;17486;46.738;7.622;2022-12-07T05:24:47;25.88;;;18.23;;
30743;SDS011;17486;46.738;7.622;2022-12-07T05:27:13;25.20;;;18.70;;
30743;SDS011;17486;46.738;7.622;2022-12-07T05:29:38;25.40;;;17.63;;
30743;SDS011;17486;46.738;7.622;2022-12-07T05:32:04;26.88;;;18.75;;
30743;SDS011;17486;46.738;7.622;2022-12-07T05:34:29;24.45;;;17.67;;
30743;SDS011;17486;46.738;7.622;2022-12-07T05:36:54;25.40;;;18.33;;
30743;SDS011;17486;46.738;7.622;2022-12-07T05:39:20;26.52;;;17.98;;
30743;SDS011;17486;46.738;7.622;2022-12-07T05:41:45;26.88;;;18.20;;
30743;SDS011;17486;46.738;7.622;2022-12-07T05:44:29;24.73;;;18.10;;
30743;SDS011;17486;46.738;7.622;2022-12-07T05:46:55;29.88;;;19.42;;
30743;SDS011;17486;46.738;7.622;2022-12-07T05:49:20;24.23;;;18.10;;
30743;SDS011;17486;46.738;7.622;2022-12-07T05:51:45;26.10;;;18.35;;
30743;SDS011;17486;46.738;7.622;2022-12-07T05:54:11;24.27;;;17.88;;
30743;SDS011;17486;46.738;7.622;2022-12-07T05:56:36;26.67;;;18.38;;
30743;SDS011;17486;46.738;7.622;2022-12-07T05:59:02;25.85;;;19.33;;
30743;SDS011;17486;46.738;7.622;2022-12-07T06:01:46;25.80;;;18.75;;
30743;SDS011;17486;46.738;7.622;2022-12-07T06:04:11;27.88;;;18.55;;
30743;SDS011;17486;46.738;7.622;2022-12-07T06:06:37;25.92;;;18.63;;
30743;SDS011;17486;46.738;7.622;2022-12-07T06:09:02;26.80;;;18.58;;
30743;SDS011;17486;46.738;7.622;2022-12-07T06:11:28;25.27;;;17.98;;
30743;SDS011;17486;46.738;7.622;2022-12-07T06:14:12;24.73;;;17.73;;
30743;SDS011;17486;46.738;7.622;2022-12-07T06:16:37;25.42;;;18.42;;
30743;SDS011;17486;46.738;7.622;2022-12-07T06:19:03;28.17;;;19.30;;
30743;SDS011;17486;46.738;7.622;2022-12-07T06:21:28;27.27;;;19.25;;
30743;SDS011;17486;46.738;7.622;2022-12-07T06:23:54;25.90;;;18.00;;
30743;SDS011;17486;46.738;7.622;2022-12-07T06:26:19;28.00;;;19.58;;
30743;SDS011;17486;46.738;7.622;2022-12-07T06:28:45;27.60;;;18.95;;
30743;SDS011;17486;46.738;7.622;2022-12-07T06:31:11;28.25;;;19.42;;
30743;SDS011;17486;46.738;7.622;2022-12-07T06:33:36;28.77;;;19.15;;
30743;SDS011;17486;46.738;7.622;2022-12-07T06:36:01;29.15;;;19.40;;
30743;SDS011;17486;46.738;7.622;2022-12-07T06:38:27;29.38;;;19.98;;
30743;SDS011;17486;46.738;7.622;2022-12-07T06:40:52;28.10;;;20.00;;
30743;SDS011;17486;46.738;7.622;2022-12-07T06:43:18;30.40;;;20.08;;
30743;SDS011;17486;46.738;7.622;2022-12-07T06:45:43;27.13;;;19.58;;
30743;SDS011;17486;46.738;7.622;2022-12-07T06:48:08;30.27;;;20.73;;
30743;SDS011;17486;46.738;7.622;2022-12-07T06:50:34;30.70;;;20.75;;
30743;SDS011;17486;46.738;7.622;2022-12-07T06:52:59;28.88;;;19.88;;
30743;SDS011;17486;46.738;7.622;2022-12-07T06:55:25;28.95;;;20.13;;
30743;SDS011;17486;46.738;7.622;2022-12-07T06:57:50;31.20;;;21.55;;
30743;SDS011;17486;46.738;7.622;2022-12-07T07:00:16;28.60;;;19.98;;
30743;SDS011;17486;46.738;7.622;2022-12-07T07:02:41;29.10;;;19.83;;
30743;SDS011;17486;46.738;7.622;2022-12-07T07:05:07;28.02;;;19.58;;
30743;SDS011;17486;46.738;7.622;2022-12-07T07:07:32;28.05;;;19.88;;
30743;SDS011;17486;46.738;7.622;2022-12-07T07:09:58;30.15;;;20.58;;
30743;SDS011;17486;46.738;7.622;2022-12-07T07:12:23;31.88;;;21.77;;
30743;SDS011;17486;46.738;7.622;2022-12-07T07:14:49;32.58;;;22.08;;
30743;SDS011;17486;46.738;7.622;2022-12-07T07:17:14;28.52;;;20.08;;
30743;SDS011;17486;46.738;7.622;2022-12-07T07:19:40;30.40;;;20.40;;
30743;SDS011;17486;46.738;7.622;2022-12-07T07:22:05;31.85;;;21.42;;
30743;SDS011;17486;46.738;7.622;2022-12-07T07:24:30;29.38;;;20.52;;
30743;SDS011;17486;46.738;7.622;2022-12-07T07:26:56;30.65;;;20.90;;
30743;SDS011;17486;46.738;7.622;2022-12-07T07:29:21;30.05;;;20.25;;
30743;SDS011;17486;46.738;7.622;2022-12-07T07:31:47;26.67;;;18.70;;
30743;SDS011;17486;46.738;7.622;2022-12-07T07:34:12;29.02;;;20.30;;
30743;SDS011;17486;46.738;7.622;2022-12-07T07:36:38;26.88;;;19.23;;
30743;SDS011;17486;46.738;7.622;2022-12-07T07:39:03;28.98;;;20.00;;
30743;SDS011;17486;46.738;7.622;2022-12-07T07:41:29;31.52;;;21.58;;
30743;SDS011;17486;46.738;7.622;2022-12-07T07:43:55;24.83;;;18.52;;
30743;SDS011;17486;46.738;7.622;2022-12-07T07:46:20;28.92;;;18.90;;
30743;SDS011;17486;46.738;7.622;2022-12-07T07:48:46;25.35;;;17.20;;
30743;SDS011;17486;46.738;7.622;2022-12-07T07:51:11;27.55;;;17.75;;
30743;SDS011;17486;46.738;7.622;2022-12-07T07:53:37;25.50;;;17.25;;
30743;SDS011;17486;46.738;7.622;2022-12-07T07:56:02;24.38;;;17.45;;
30743;SDS011;17486;46.738;7.622;2022-12-07T07:58:28;25.27;;;17.70;;
30743;SDS011;17486;46.738;7.622;2022-12-07T08:00:53;23.45;;;16.95;;
30743;SDS011;17486;46.738;7.622;2022-12-07T08:03:19;26.80;;;17.92;;
30743;SDS011;17486;46.738;7.622;2022-12-07T08:05:44;24.33;;;16.80;;
30743;SDS011;17486;46.738;7.622;2022-12-07T08:08:10;25.85;;;17.63;;
30743;SDS011;17486;46.738;7.622;2022-12-07T08:10:35;22.67;;;16.60;;
30743;SDS011;17486;46.738;7.622;2022-12-07T08:13:02;23.27;;;17.38;;
30743;SDS011;17486;46.738;7.622;2022-12-07T08:15:37;27.92;;;18.15;;
30743;SDS011;17486;46.738;7.622;2022-12-07T08:18:04;24.95;;;17.27;;
30743;SDS011;17486;46.738;7.622;2022-12-07T08:20:30;29.15;;;21.20;;
30743;SDS011;17486;46.738;7.622;2022-12-07T08:22:57;26.45;;;19.05;;
30743;SDS011;17486;46.738;7.622;2022-12-07T08:25:23;25.48;;;18.88;;
30743;SDS011;17486;46.738;7.622;2022-12-07T08:27:48;28.92;;;20.33;;
30743;SDS011;17486;46.738;7.622;2022-12-07T08:30:15;28.23;;;20.30;;
30743;SDS011;17486;46.738;7.622;2022-12-07T08:32:41;28.23;;;20.25;;
30743;SDS011;17486;46.738;7.622;2022-12-07T08:35:06;27.40;;;20.02;;
30743;SDS011;17486;46.738;7.622;2022-12-07T08:37:33;27.20;;;19.52;;
30743;SDS011;17486;46.738;7.622;2022-12-07T08:39:58;27.60;;;19.88;;
30743;SDS011;17486;46.738;7.622;2022-12-07T08:42:24;28.95;;;20.17;;
30743;SDS011;17486;46.738;7.622;2022-12-07T08:44:54;27.80;;;20.63;;
30743;SDS011;17486;46.738;7.622;2022-12-07T08:47:20;27.60;;;19.70;;
30743;SDS011;17486;46.738;7.622;2022-12-07T08:49:46;29.15;;;19.70;;
30743;SDS011;17486;46.738;7.622;2022-12-07T08:52:14;25.88;;;18.77;;
30743;SDS011;17486;46.738;7.622;2022-12-07T08:54:40;24.73;;;17.88;;
30743;SDS011;17486;46.738;7.622;2022-12-07T08:57:07;25.67;;;18.67;;
30743;SDS011;17486;46.738;7.622;2022-12-07T08:59:35;25.05;;;17.85;;
30743;SDS011;17486;46.738;7.622;2022-12-07T09:02:01;25.00;;;18.23;;
30743;SDS011;17486;46.738;7.622;2022-12-07T09:04:27;28.80;;;19.50;;
30743;SDS011;17486;46.738;7.622;2022-12-07T09:06:53;25.92;;;18.98;;
30743;SDS011;17486;46.738;7.622;2022-12-07T09:09:20;26.05;;;17.98;;
30743;SDS011;17486;46.738;7.622;2022-12-07T09:11:45;26.55;;;19.80;;
30743;SDS011;17486;46.738;7.622;2022-12-07T09:14:11;26.88;;;18.33;;
30743;SDS011;17486;46.738;7.622;2022-12-07T09:16:37;23.65;;;17.98;;
30743;SDS011;17486;46.738;7.622;2022-12-07T09:19:03;23.92;;;16.95;;
30743;SDS011;17486;46.738;7.622;2022-12-07T09:21:28;25.10;;;17.08;;
30743;SDS011;17486;46.738;7.622;2022-12-07T09:23:53;24.98;;;17.60;;
30743;SDS011;17486;46.738;7.622;2022-12-07T09:26:19;24.00;;;16.58;;
30743;SDS011;17486;46.738;7.622;2022-12-07T09:28:44;24.08;;;17.20;;
30743;SDS011;17486;46.738;7.622;2022-12-07T09:31:10;21.45;;;16.00;;
30743;SDS011;17486;46.738;7.622;2022-12-07T09:33:35;21.52;;;16.25;;
30743;SDS011;17486;46.738;7.622;2022-12-07T09:36:00;20.60;;;15.15;;
30743;SDS011;17486;46.738;7.622;2022-12-07T09:38:27;20.55;;;15.73;;
30743;SDS011;17486;46.738;7.622;2022-12-07T09:40:54;20.88;;;14.73;;
30743;SDS011;17486;46.738;7.622;2022-12-07T09:43:20;18.65;;;13.70;;
30743;SDS011;17486;46.738;7.622;2022-12-07T09:45:50;18.80;;;14.45;;
30743;SDS011;17486;46.738;7.622;2022-12-07T09:48:19;17.10;;;13.95;;
30743;SDS011;17486;46.738;7.622;2022-12-07T09:50:47;21.48;;;14.70;;
30743;SDS011;17486;46.738;7.622;2022-12-07T09:53:17;20.40;;;16.00;;
30743;SDS011;17486;46.738;7.622;2022-12-07T09:55:55;20.55;;;15.98;;
30743;SDS011;17486;46.738;7.622;2022-12-07T09:58:22;20.50;;;15.40;;
30743;SDS011;17486;46.738;7.622;2022-12-07T10:01:00;18.27;;;14.63;;
30743;SDS011;17486;46.738;7.622;2022-12-07T10:03:35;19.65;;;15.23;;
30743;SDS011;17486;46.738;7.622;2022-12-07T10:06:03;23.02;;;16.52;;
30743;SDS011;17486;46.738;7.622;2022-12-07T10:08:30;19.10;;;14.82;;
30743;SDS011;17486;46.738;7.622;2022-12-07T10:10:56;20.40;;;15.90;;
30743;SDS011;17486;46.738;7.622;2022-12-07T10:13:43;19.55;;;15.77;;
30743;SDS011;17486;46.738;7.622;2022-12-07T10:19:19;18.58;;;14.38;;
30743;SDS011;17486;46.738;7.622;2022-12-07T10:24:38;22.33;;;15.07;;
30743;SDS011;17486;46.738;7.622;2022-12-07T10:27:16;18.42;;;13.50;;
30743;SDS011;17486;46.738;7.622;2022-12-07T10:29:43;17.90;;;13.93;;
30743;SDS011;17486;46.738;7.622;2022-12-07T10:34:39;16.10;;;13.82;;
30743;SDS011;17486;46.738;7.622;2022-12-07T10:37:17;17.58;;;14.10;;
30743;SDS011;17486;46.738;7.622;2022-12-07T10:39:51;18.13;;;13.82;;
30743;SDS011;17486;46.738;7.622;2022-12-07T10:42:19;18.67;;;13.57;;
30743;SDS011;17486;46.738;7.622;2022-12-07T10:47:48;20.30;;;14.00;;
30743;SDS011;17486;46.738;7.622;2022-12-07T10:50:29;17.92;;;14.70;;
30743;SDS011;17486;46.738;7.622;2022-12-07T11:02:30;17.50;;;13.73;;
30743;SDS011;17486;46.738;7.622;2022-12-07T11:08:45;16.98;;;12.93;;
30743;SDS011;17486;46.738;7.622;2022-12-07T11:14:23;18.50;;;13.93;;
30743;SDS011;17486;46.738;7.622;2022-12-07T11:31:25;16.30;;;12.57;;
30743;SDS011;17486;46.738;7.622;2022-12-07T11:36:59;14.25;;;11.80;;
30743;SDS011;17486;46.738;7.622;2022-12-07T11:39:33;13.50;;;11.48;;
30743;SDS011;17486;46.738;7.622;2022-12-07T11:42:06;14.77;;;12.00;;
30743;SDS011;17486;46.738;7.622;2022-12-07T11:50:20;13.98;;;11.40;;
30743;SDS011;17486;46.738;7.622;2022-12-07T11:53:00;15.50;;;11.65;;
30743;SDS011;17486;46.738;7.622;2022-12-07T12:06:40;16.05;;;11.10;;
30743;SDS011;17486;46.738;7.622;2022-12-07T12:09:21;15.85;;;11.63;;
30743;SDS011;17486;46.738;7.622;2022-12-07T12:22:55;13.35;;;10.38;;
30743;SDS011;17486;46.738;7.622;2022-12-07T12:27:54;15.98;;;11.15;;
30743;SDS011;17486;46.738;7.622;2022-12-07T12:30:40;14.85;;;11.63;;
30743;SDS011;17486;46.738;7.622;2022-12-07T12:33:20;17.27;;;11.88;;
30743;SDS011;17486;46.738;7.622;2022-12-07T12:46:53;15.35;;;11.52;;
30743;SDS011;17486;46.738;7.622;2022-12-07T12:51:54;14.35;;;11.13;;
30743;SDS011;17486;46.738;7.622;2022-12-07T12:54:21;14.32;;;11.07;;
30743;SDS011;17486;46.738;7.622;2022-12-07T12:56:52;13.77;;;10.43;;
30743;SDS011;17486;46.738;7.622;2022-12-07T13:13:03;12.48;;;9.82;;
30743;SDS011;17486;46.738;7.622;2022-12-07T13:15:48;11.85;;;9.43;;
30743;SDS011;17486;46.738;7.622;2022-12-07T13:31:44;11.38;;;9.27;;
30743;SDS011;17486;46.738;7.622;2022-12-07T13:36:57;13.32;;;11.13;;
30743;SDS011;17486;46.738;7.622;2022-12-07T13:39:25;12.52;;;11.13;;
30743;SDS011;17486;46.738;7.622;2022-12-07T13:41:56;12.52;;;10.65;;
30743;SDS011;17486;46.738;7.622;2022-12-07T13:44:25;10.35;;;9.23;;
30743;SDS011;17486;46.738;7.622;2022-12-07T13:49:27;12.25;;;9.60;;
30743;SDS011;17486;46.738;7.622;2022-12-07T13:51:54;10.60;;;9.18;;
30743;SDS011;17486;46.738;7.622;2022-12-07T13:54:31;12.98;;;10.32;;
30743;SDS011;17486;46.738;7.622;2022-12-07T13:56:57;11.63;;;9.20;;
30743;SDS011;17486;46.738;7.622;2022-12-07T13:59:23;13.13;;;9.65;;
30743;SDS011;17486;46.738;7.622;2022-12-07T14:01:50;12.20;;;9.20;;
30743;SDS011;17486;46.738;7.622;2022-12-07T14:06:58;12.93;;;9.30;;
30743;SDS011;17486;46.738;7.622;2022-12-07T14:09:26;10.60;;;8.73;;
30743;SDS011;17486;46.738;7.622;2022-12-07T14:11:55;11.32;;;9.07;;
30743;SDS011;17486;46.738;7.622;2022-12-07T14:14:23;11.32;;;8.35;;
30743;SDS011;17486;46.738;7.622;2022-12-07T14:16:58;10.48;;;8.60;;
30743;SDS011;17486;46.738;7.622;2022-12-07T14:24:43;9.88;;;7.82;;
30743;SDS011;17486;46.738;7.622;2022-12-07T14:27:19;8.90;;;7.22;;
30743;SDS011;17486;46.738;7.622;2022-12-07T14:29:46;12.40;;;8.55;;
30743;SDS011;17486;46.738;7.622;2022-12-07T14:32:25;10.02;;;8.07;;
30743;SDS011;17486;46.738;7.622;2022-12-07T14:37:26;9.52;;;8.00;;
30743;SDS011;17486;46.738;7.622;2022-12-07T14:39:52;10.38;;;8.27;;
30743;SDS011;17486;46.738;7.622;2022-12-07T14:42:18;10.50;;;8.77;;
30743;SDS011;17486;46.738;7.622;2022-12-07T14:44:44;10.50;;;8.25;;
30743;SDS011;17486;46.738;7.622;2022-12-07T14:47:10;9.18;;;8.00;;
30743;SDS011;17486;46.738;7.622;2022-12-07T14:49:36;10.30;;;8.02;;
30743;SDS011;17486;46.738;7.622;2022-12-07T14:52:01;10.55;;;8.55;;
30743;SDS011;17486;46.738;7.622;2022-12-07T14:54:27;10.48;;;8.68;;
30743;SDS011;17486;46.738;7.622;2022-12-07T14:56:57;12.07;;;9.25;;
30743;SDS011;17486;46.738;7.622;2022-12-07T14:59:23;14.15;;;9.85;;
30743;SDS011;17486;46.738;7.622;2022-12-07T15:01:48;12.85;;;9.82;;
30743;SDS011;17486;46.738;7.622;2022-12-07T15:04:14;15.65;;;12.20;;
30743;SDS011;17486;46.738;7.622;2022-12-07T15:06:39;14.52;;;11.32;;
30743;SDS011;17486;46.738;7.622;2022-12-07T15:09:05;16.50;;;12.98;;
30743;SDS011;17486;46.738;7.622;2022-12-07T15:11:31;17.33;;;12.40;;
30743;SDS011;17486;46.738;7.622;2022-12-07T15:13:56;15.38;;;12.25;;
30743;SDS011;17486;46.738;7.622;2022-12-07T15:16:34;20.05;;;12.88;;
30743;SDS011;17486;46.738;7.622;2022-12-07T15:19:01;16.45;;;13.10;;
30743;SDS011;17486;46.738;7.622;2022-12-07T15:21:26;18.50;;;14.27;;
30743;SDS011;17486;46.738;7.622;2022-12-07T15:23:53;21.33;;;13.80;;
30743;SDS011;17486;46.738;7.622;2022-12-07T15:26:19;18.92;;;13.77;;
30743;SDS011;17486;46.738;7.622;2022-12-07T15:28:44;19.98;;;14.40;;
30743;SDS011;17486;46.738;7.622;2022-12-07T15:31:13;18.20;;;13.88;;
30743;SDS011;17486;46.738;7.622;2022-12-07T15:33:39;19.58;;;14.10;;
30743;SDS011;17486;46.738;7.622;2022-12-07T15:36:05;19.20;;;13.57;;
30743;SDS011;17486;46.738;7.622;2022-12-07T15:38:31;21.15;;;14.25;;
30743;SDS011;17486;46.738;7.622;2022-12-07T15:40:56;18.33;;;13.55;;
30743;SDS011;17486;46.738;7.622;2022-12-07T15:43:22;18.85;;;13.50;;
30743;SDS011;17486;46.738;7.622;2022-12-07T15:46:06;22.13;;;14.20;;
30743;SDS011;17486;46.738;7.622;2022-12-07T15:48:32;18.63;;;14.15;;
30743;SDS011;17486;46.738;7.622;2022-12-07T15:51:04;20.40;;;14.88;;
30743;SDS011;17486;46.738;7.622;2022-12-07T15:53:31;22.00;;;14.98;;
30743;SDS011;17486;46.738;7.622;2022-12-07T15:55:57;20.83;;;14.98;;
30743;SDS011;17486;46.738;7.622;2022-12-07T15:58:22;19.20;;;14.52;;
30743;SDS011;17486;46.738;7.622;2022-12-07T16:00:48;18.27;;;13.55;;
30743;SDS011;17486;46.738;7.622;2022-12-07T16:03:13;18.92;;;14.25;;
30743;SDS011;17486;46.738;7.622;2022-12-07T16:05:39;17.95;;;13.73;;
30743;SDS011;17486;46.738;7.622;2022-12-07T16:08:04;18.45;;;13.90;;
30743;SDS011;17486;46.738;7.622;2022-12-07T16:10:30;20.95;;;15.02;;
30743;SDS011;17486;46.738;7.622;2022-12-07T16:12:55;22.55;;;15.25;;
30743;SDS011;17486;46.738;7.622;2022-12-07T16:15:21;18.70;;;13.88;;
30743;SDS011;17486;46.738;7.622;2022-12-07T16:17:47;19.92;;;14.00;;
30743;SDS011;17486;46.738;7.622;2022-12-07T16:20:13;19.58;;;13.93;;
30743;SDS011;17486;46.738;7.622;2022-12-07T16:22:38;21.45;;;14.43;;
30743;SDS011;17486;46.738;7.622;2022-12-07T16:25:04;19.63;;;14.95;;
30743;SDS011;17486;46.738;7.622;2022-12-07T16:27:29;17.63;;;14.60;;
30743;SDS011;17486;46.738;7.622;2022-12-07T16:29:55;19.95;;;14.23;;
30743;SDS011;17486;46.738;7.622;2022-12-07T16:32:20;19.25;;;14.55;;
30743;SDS011;17486;46.738;7.622;2022-12-07T16:34:46;19.95;;;14.50;;
30743;SDS011;17486;46.738;7.622;2022-12-07T16:37:11;19.38;;;15.23;;
30743;SDS011;17486;46.738;7.622;2022-12-07T16:39:36;19.25;;;14.50;;
30743;SDS011;17486;46.738;7.622;2022-12-07T16:42:02;19.38;;;14.18;;
30743;SDS011;17486;46.738;7.622;2022-12-07T16:44:28;18.80;;;12.95;;
30743;SDS011;17486;46.738;7.622;2022-12-07T16:46:53;20.60;;;13.85;;
30743;SDS011;17486;46.738;7.622;2022-12-07T16:49:18;21.23;;;14.63;;
30743;SDS011;17486;46.738;7.622;2022-12-07T16:51:44;17.70;;;13.73;;
30743;SDS011;17486;46.738;7.622;2022-12-07T16:54:11;17.38;;;12.88;;
30743;SDS011;17486;46.738;7.622;2022-12-07T16:56:37;17.70;;;13.57;;
30743;SDS011;17486;46.738;7.622;2022-12-07T16:59:03;16.85;;;13.48;;
30743;SDS011;17486;46.738;7.622;2022-12-07T17:01:28;17.60;;;13.18;;
30743;SDS011;17486;46.738;7.622;2022-12-07T17:03:54;19.30;;;14.32;;
30743;SDS011;17486;46.738;7.622;2022-12-07T17:06:22;20.05;;;14.32;;
30743;SDS011;17486;46.738;7.622;2022-12-07T17:08:49;18.67;;;13.73;;
30743;SDS011;17486;46.738;7.622;2022-12-07T17:11:26;18.90;;;14.05;;
30743;SDS011;17486;46.738;7.622;2022-12-07T17:13:54;18.67;;;13.82;;
30743;SDS011;17486;46.738;7.622;2022-12-07T17:16:38;18.17;;;13.50;;
30743;SDS011;17486;46.738;7.622;2022-12-07T17:19:08;18.20;;;13.07;;
30743;SDS011;17486;46.738;7.622;2022-12-07T17:21:35;17.08;;;12.85;;
30743;SDS011;17486;46.738;7.622;2022-12-07T17:24:02;18.40;;;13.18;;
30743;SDS011;17486;46.738;7.622;2022-12-07T17:26:29;17.38;;;13.57;;